sensor_id;sensor_type;location;lat;lon;timestamp;P1;durP1;ratioP1;P2;durP2;ratioP2
72797;SDS011;61084;55.816;37.036;2024-02-26T00:00:39;4.32;;;1.90;;
72797;SDS011;61084;55.816;37.036;2024-02-26T00:03:06;4.30;;;1.80;;
72797;SDS011;61084;55.816;37.036;2024-02-26T00:05:32;6.68;;;2.00;;
72797;SDS011;61084;55.816;37.036;2024-02-26T00:07:57;5.43;;;1.85;;
72797;SDS011;61084;55.816;37.036;2024-02-26T00:10:23;5.85;;;2.30;;
72797;SDS011;61084;55.816;37.036;2024-02-26T00:12:49;4.05;;;1.80;;
72797;SDS011;61084;55.816;37.036;2024-02-26T00:15:15;4.88;;;1.48;;
72797;SDS011;61084;55.816;37.036;2024-02-26T00:17:41;4.88;;;1.80;;
72797;SDS011;61084;55.816;37.036;2024-02-26T00:20:07;4.57;;;1.73;;
72797;SDS011;61084;55.816;37.036;2024-02-26T00:22:36;4.32;;;1.90;;
72797;SDS011;61084;55.816;37.036;2024-02-26T00:25:02;3.92;;;1.60;;
72797;SDS011;61084;55.816;37.036;2024-02-26T00:27:29;4.22;;;1.75;;
72797;SDS011;61084;55.816;37.036;2024-02-26T00:29:55;4.75;;;2.10;;
72797;SDS011;61084;55.816;37.036;2024-02-26T00:32:20;4.75;;;1.80;;
72797;SDS011;61084;55.816;37.036;2024-02-26T00:34:46;7.68;;;2.03;;
72797;SDS011;61084;55.816;37.036;2024-02-26T00:37:12;4.05;;;1.73;;
72797;SDS011;61084;55.816;37.036;2024-02-26T00:39:38;3.78;;;1.60;;
72797;SDS011;61084;55.816;37.036;2024-02-26T00:42:04;3.13;;;1.55;;
72797;SDS011;61084;55.816;37.036;2024-02-26T00:44:30;3.70;;;1.45;;
72797;SDS011;61084;55.816;37.036;2024-02-26T00:46:57;4.63;;;1.73;;
72797;SDS011;61084;55.816;37.036;2024-02-26T00:49:23;2.75;;;1.50;;
72797;SDS011;61084;55.816;37.036;2024-02-26T00:51:49;3.85;;;1.38;;
72797;SDS011;61084;55.816;37.036;2024-02-26T00:54:15;3.50;;;1.55;;
72797;SDS011;61084;55.816;37.036;2024-02-26T00:56:40;6.53;;;1.90;;
72797;SDS011;61084;55.816;37.036;2024-02-26T00:59:06;6.18;;;1.80;;
72797;SDS011;61084;55.816;37.036;2024-02-26T01:01:32;5.47;;;1.73;;
72797;SDS011;61084;55.816;37.036;2024-02-26T01:03:58;3.53;;;1.50;;
72797;SDS011;61084;55.816;37.036;2024-02-26T01:06:24;3.08;;;1.40;;
72797;SDS011;61084;55.816;37.036;2024-02-26T01:08:50;5.90;;;1.80;;
72797;SDS011;61084;55.816;37.036;2024-02-26T01:11:16;3.72;;;1.55;;
72797;SDS011;61084;55.816;37.036;2024-02-26T01:13:42;5.57;;;1.90;;
72797;SDS011;61084;55.816;37.036;2024-02-26T01:16:08;3.47;;;1.52;;
72797;SDS011;61084;55.816;37.036;2024-02-26T01:18:33;3.20;;;1.52;;
72797;SDS011;61084;55.816;37.036;2024-02-26T01:20:59;2.80;;;1.60;;
72797;SDS011;61084;55.816;37.036;2024-02-26T01:23:25;6.53;;;1.90;;
72797;SDS011;61084;55.816;37.036;2024-02-26T01:25:51;4.60;;;1.75;;
72797;SDS011;61084;55.816;37.036;2024-02-26T01:28:17;3.28;;;1.70;;
72797;SDS011;61084;55.816;37.036;2024-02-26T01:30:43;3.03;;;1.38;;
72797;SDS011;61084;55.816;37.036;2024-02-26T01:33:08;3.63;;;1.50;;
72797;SDS011;61084;55.816;37.036;2024-02-26T01:35:34;4.50;;;1.80;;
72797;SDS011;61084;55.816;37.036;2024-02-26T01:38:00;3.53;;;1.60;;
72797;SDS011;61084;55.816;37.036;2024-02-26T01:40:26;6.10;;;1.45;;
72797;SDS011;61084;55.816;37.036;2024-02-26T01:42:53;3.53;;;1.52;;
72797;SDS011;61084;55.816;37.036;2024-02-26T01:45:19;4.63;;;1.27;;
72797;SDS011;61084;55.816;37.036;2024-02-26T01:47:50;6.53;;;1.73;;
72797;SDS011;61084;55.816;37.036;2024-02-26T01:50:17;3.92;;;1.55;;
72797;SDS011;61084;55.816;37.036;2024-02-26T01:52:47;5.78;;;1.40;;
72797;SDS011;61084;55.816;37.036;2024-02-26T01:55:15;3.35;;;1.67;;
72797;SDS011;61084;55.816;37.036;2024-02-26T01:57:43;3.85;;;1.50;;
72797;SDS011;61084;55.816;37.036;2024-02-26T02:02:38;5.13;;;1.40;;
72797;SDS011;61084;55.816;37.036;2024-02-26T02:05:04;4.07;;;1.20;;
72797;SDS011;61084;55.816;37.036;2024-02-26T02:07:32;4.03;;;1.50;;
72797;SDS011;61084;55.816;37.036;2024-02-26T02:09:58;2.92;;;1.27;;
72797;SDS011;61084;55.816;37.036;2024-02-26T02:12:24;3.88;;;1.45;;
72797;SDS011;61084;55.816;37.036;2024-02-26T02:14:50;5.93;;;1.30;;
72797;SDS011;61084;55.816;37.036;2024-02-26T02:17:16;3.55;;;1.60;;
72797;SDS011;61084;55.816;37.036;2024-02-26T02:19:42;3.47;;;1.55;;
72797;SDS011;61084;55.816;37.036;2024-02-26T02:22:08;2.88;;;1.58;;
72797;SDS011;61084;55.816;37.036;2024-02-26T02:24:35;4.50;;;1.67;;
72797;SDS011;61084;55.816;37.036;2024-02-26T02:27:01;3.95;;;1.90;;
72797;SDS011;61084;55.816;37.036;2024-02-26T02:29:27;3.53;;;1.63;;
72797;SDS011;61084;55.816;37.036;2024-02-26T02:31:53;2.78;;;1.50;;
72797;SDS011;61084;55.816;37.036;2024-02-26T02:34:19;4.50;;;1.80;;
72797;SDS011;61084;55.816;37.036;2024-02-26T02:36:52;5.45;;;1.80;;
72797;SDS011;61084;55.816;37.036;2024-02-26T02:39:19;2.53;;;1.38;;
72797;SDS011;61084;55.816;37.036;2024-02-26T02:41:46;2.20;;;1.35;;
72797;SDS011;61084;55.816;37.036;2024-02-26T02:44:12;2.78;;;1.10;;
72797;SDS011;61084;55.816;37.036;2024-02-26T02:46:38;5.85;;;1.77;;
72797;SDS011;61084;55.816;37.036;2024-02-26T02:49:07;4.53;;;1.63;;
72797;SDS011;61084;55.816;37.036;2024-02-26T02:51:37;3.97;;;1.25;;
72797;SDS011;61084;55.816;37.036;2024-02-26T02:54:03;6.65;;;1.65;;
72797;SDS011;61084;55.816;37.036;2024-02-26T02:56:29;5.78;;;1.50;;
72797;SDS011;61084;55.816;37.036;2024-02-26T02:58:55;3.33;;;1.10;;
72797;SDS011;61084;55.816;37.036;2024-02-26T03:01:21;3.00;;;1.48;;
72797;SDS011;61084;55.816;37.036;2024-02-26T03:03:47;3.22;;;1.77;;
72797;SDS011;61084;55.816;37.036;2024-02-26T03:06:13;2.65;;;1.40;;
72797;SDS011;61084;55.816;37.036;2024-02-26T03:08:39;4.43;;;1.48;;
72797;SDS011;61084;55.816;37.036;2024-02-26T03:11:07;4.13;;;1.73;;
72797;SDS011;61084;55.816;37.036;2024-02-26T03:13:33;4.00;;;1.83;;
72797;SDS011;61084;55.816;37.036;2024-02-26T03:16:03;2.47;;;1.17;;
72797;SDS011;61084;55.816;37.036;2024-02-26T03:18:30;3.08;;;1.23;;
72797;SDS011;61084;55.816;37.036;2024-02-26T03:20:56;4.78;;;1.30;;
72797;SDS011;61084;55.816;37.036;2024-02-26T03:23:21;5.38;;;1.90;;
72797;SDS011;61084;55.816;37.036;2024-02-26T03:25:47;6.95;;;1.30;;
72797;SDS011;61084;55.816;37.036;2024-02-26T03:28:13;6.38;;;1.55;;
72797;SDS011;61084;55.816;37.036;2024-02-26T03:30:39;6.50;;;1.70;;
72797;SDS011;61084;55.816;37.036;2024-02-26T03:33:05;4.13;;;1.35;;
72797;SDS011;61084;55.816;37.036;2024-02-26T03:35:31;3.50;;;1.45;;
72797;SDS011;61084;55.816;37.036;2024-02-26T03:37:57;2.83;;;1.40;;
72797;SDS011;61084;55.816;37.036;2024-02-26T03:40:23;4.43;;;1.20;;
72797;SDS011;61084;55.816;37.036;2024-02-26T03:42:49;4.03;;;1.27;;
72797;SDS011;61084;55.816;37.036;2024-02-26T03:45:17;4.97;;;1.55;;
72797;SDS011;61084;55.816;37.036;2024-02-26T03:47:43;4.38;;;1.40;;
72797;SDS011;61084;55.816;37.036;2024-02-26T03:50:09;6.65;;;1.50;;
72797;SDS011;61084;55.816;37.036;2024-02-26T03:52:35;4.88;;;1.55;;
72797;SDS011;61084;55.816;37.036;2024-02-26T03:55:01;6.50;;;1.58;;
72797;SDS011;61084;55.816;37.036;2024-02-26T03:57:27;6.07;;;1.70;;
72797;SDS011;61084;55.816;37.036;2024-02-26T03:59:53;4.72;;;1.27;;
72797;SDS011;61084;55.816;37.036;2024-02-26T04:02:19;4.03;;;1.73;;
72797;SDS011;61084;55.816;37.036;2024-02-26T04:04:45;3.97;;;1.30;;
72797;SDS011;61084;55.816;37.036;2024-02-26T04:07:12;4.93;;;1.35;;
72797;SDS011;61084;55.816;37.036;2024-02-26T04:09:39;6.50;;;1.48;;
72797;SDS011;61084;55.816;37.036;2024-02-26T04:12:05;5.18;;;1.67;;
72797;SDS011;61084;55.816;37.036;2024-02-26T04:14:31;3.53;;;1.52;;
72797;SDS011;61084;55.816;37.036;2024-02-26T04:16:57;4.28;;;1.30;;
72797;SDS011;61084;55.816;37.036;2024-02-26T04:19:22;6.30;;;1.27;;
72797;SDS011;61084;55.816;37.036;2024-02-26T04:21:48;3.47;;;1.52;;
72797;SDS011;61084;55.816;37.036;2024-02-26T04:24:14;4.65;;;1.40;;
72797;SDS011;61084;55.816;37.036;2024-02-26T04:26:40;3.40;;;1.42;;
72797;SDS011;61084;55.816;37.036;2024-02-26T04:29:06;4.70;;;1.85;;
72797;SDS011;61084;55.816;37.036;2024-02-26T04:31:32;3.95;;;1.35;;
72797;SDS011;61084;55.816;37.036;2024-02-26T04:33:58;7.05;;;1.45;;
72797;SDS011;61084;55.816;37.036;2024-02-26T04:36:24;6.70;;;1.45;;
72797;SDS011;61084;55.816;37.036;2024-02-26T04:38:51;2.20;;;0.95;;
72797;SDS011;61084;55.816;37.036;2024-02-26T04:41:20;4.75;;;1.27;;
72797;SDS011;61084;55.816;37.036;2024-02-26T04:43:45;3.33;;;1.30;;
72797;SDS011;61084;55.816;37.036;2024-02-26T04:46:11;4.93;;;1.40;;
72797;SDS011;61084;55.816;37.036;2024-02-26T04:48:37;5.97;;;1.77;;
72797;SDS011;61084;55.816;37.036;2024-02-26T04:51:07;2.90;;;1.38;;
72797;SDS011;61084;55.816;37.036;2024-02-26T04:53:33;3.85;;;1.30;;
72797;SDS011;61084;55.816;37.036;2024-02-26T04:55:59;5.20;;;1.50;;
72797;SDS011;61084;55.816;37.036;2024-02-26T04:58:25;7.28;;;1.60;;
72797;SDS011;61084;55.816;37.036;2024-02-26T05:00:50;6.13;;;1.90;;
72797;SDS011;61084;55.816;37.036;2024-02-26T05:03:17;5.82;;;1.58;;
72797;SDS011;61084;55.816;37.036;2024-02-26T05:05:43;5.40;;;1.33;;
72797;SDS011;61084;55.816;37.036;2024-02-26T05:08:09;3.28;;;1.20;;
72797;SDS011;61084;55.816;37.036;2024-02-26T05:10:36;3.80;;;1.33;;
72797;SDS011;61084;55.816;37.036;2024-02-26T05:13:06;5.57;;;1.88;;
72797;SDS011;61084;55.816;37.036;2024-02-26T05:15:32;2.70;;;1.20;;
72797;SDS011;61084;55.816;37.036;2024-02-26T05:17:58;5.57;;;1.75;;
72797;SDS011;61084;55.816;37.036;2024-02-26T05:20:24;2.92;;;1.60;;
72797;SDS011;61084;55.816;37.036;2024-02-26T05:22:50;4.38;;;1.50;;
72797;SDS011;61084;55.816;37.036;2024-02-26T05:25:17;4.15;;;1.23;;
72797;SDS011;61084;55.816;37.036;2024-02-26T05:27:43;3.53;;;1.40;;
72797;SDS011;61084;55.816;37.036;2024-02-26T05:30:10;5.00;;;1.70;;
72797;SDS011;61084;55.816;37.036;2024-02-26T05:32:37;5.45;;;1.60;;
72797;SDS011;61084;55.816;37.036;2024-02-26T05:35:03;3.53;;;1.38;;
72797;SDS011;61084;55.816;37.036;2024-02-26T05:37:30;3.60;;;1.40;;
72797;SDS011;61084;55.816;37.036;2024-02-26T05:39:56;4.80;;;1.63;;
72797;SDS011;61084;55.816;37.036;2024-02-26T05:42:22;5.15;;;1.67;;
72797;SDS011;61084;55.816;37.036;2024-02-26T05:44:48;3.10;;;1.50;;
72797;SDS011;61084;55.816;37.036;2024-02-26T05:47:13;7.32;;;1.92;;
72797;SDS011;61084;55.816;37.036;2024-02-26T05:49:39;45.25;;;18.73;;
72797;SDS011;61084;55.816;37.036;2024-02-26T05:52:06;21.50;;;11.05;;
72797;SDS011;61084;55.816;37.036;2024-02-26T05:54:32;18.70;;;10.82;;
72797;SDS011;61084;55.816;37.036;2024-02-26T05:56:57;10.25;;;3.63;;
72797;SDS011;61084;55.816;37.036;2024-02-26T05:59:23;7.50;;;4.00;;
72797;SDS011;61084;55.816;37.036;2024-02-26T06:01:49;9.13;;;3.20;;
72797;SDS011;61084;55.816;37.036;2024-02-26T06:04:15;9.05;;;3.28;;
72797;SDS011;61084;55.816;37.036;2024-02-26T06:09:10;12.82;;;4.97;;
72797;SDS011;61084;55.816;37.036;2024-02-26T06:11:37;7.15;;;3.30;;
72797;SDS011;61084;55.816;37.036;2024-02-26T06:14:03;7.35;;;3.28;;
72797;SDS011;61084;55.816;37.036;2024-02-26T06:16:29;5.57;;;2.67;;
72797;SDS011;61084;55.816;37.036;2024-02-26T06:18:55;7.00;;;3.17;;
72797;SDS011;61084;55.816;37.036;2024-02-26T06:21:22;5.80;;;2.78;;
72797;SDS011;61084;55.816;37.036;2024-02-26T06:23:48;11.05;;;5.82;;
72797;SDS011;61084;55.816;37.036;2024-02-26T06:26:15;7.38;;;4.00;;
72797;SDS011;61084;55.816;37.036;2024-02-26T06:28:40;7.70;;;3.13;;
72797;SDS011;61084;55.816;37.036;2024-02-26T06:31:06;29.98;;;13.00;;
72797;SDS011;61084;55.816;37.036;2024-02-26T06:33:32;28.25;;;12.80;;
72797;SDS011;61084;55.816;37.036;2024-02-26T06:35:58;11.18;;;5.25;;
72797;SDS011;61084;55.816;37.036;2024-02-26T06:38:24;20.10;;;9.85;;
72797;SDS011;61084;55.816;37.036;2024-02-26T06:40:50;20.83;;;9.60;;
72797;SDS011;61084;55.816;37.036;2024-02-26T06:43:16;16.70;;;7.35;;
72797;SDS011;61084;55.816;37.036;2024-02-26T06:45:42;14.50;;;5.68;;
72797;SDS011;61084;55.816;37.036;2024-02-26T06:48:08;73.43;;;38.28;;
72797;SDS011;61084;55.816;37.036;2024-02-26T06:50:34;28.45;;;16.08;;
72797;SDS011;61084;55.816;37.036;2024-02-26T06:52:59;23.25;;;12.20;;
72797;SDS011;61084;55.816;37.036;2024-02-26T06:55:25;19.05;;;10.60;;
72797;SDS011;61084;55.816;37.036;2024-02-26T06:57:51;9.60;;;5.18;;
72797;SDS011;61084;55.816;37.036;2024-02-26T07:00:17;16.83;;;7.65;;
72797;SDS011;61084;55.816;37.036;2024-02-26T07:02:43;87.85;;;36.38;;
72797;SDS011;61084;55.816;37.036;2024-02-26T07:05:09;19.77;;;10.23;;
72797;SDS011;61084;55.816;37.036;2024-02-26T07:07:35;9.40;;;3.38;;
72797;SDS011;61084;55.816;37.036;2024-02-26T07:10:01;31.77;;;13.45;;
72797;SDS011;61084;55.816;37.036;2024-02-26T07:12:30;30.98;;;13.50;;
72797;SDS011;61084;55.816;37.036;2024-02-26T07:14:56;35.53;;;15.40;;
72797;SDS011;61084;55.816;37.036;2024-02-26T07:17:22;33.53;;;16.90;;
72797;SDS011;61084;55.816;37.036;2024-02-26T07:19:48;46.88;;;22.35;;
72797;SDS011;61084;55.816;37.036;2024-02-26T07:22:14;84.38;;;44.22;;
72797;SDS011;61084;55.816;37.036;2024-02-26T07:24:40;65.75;;;30.20;;
72797;SDS011;61084;55.816;37.036;2024-02-26T07:27:06;23.25;;;11.57;;
72797;SDS011;61084;55.816;37.036;2024-02-26T07:29:32;37.08;;;19.27;;
72797;SDS011;61084;55.816;37.036;2024-02-26T07:31:58;21.70;;;9.93;;
72797;SDS011;61084;55.816;37.036;2024-02-26T07:34:24;12.52;;;4.50;;
72797;SDS011;61084;55.816;37.036;2024-02-26T07:36:55;11.77;;;3.95;;
72797;SDS011;61084;55.816;37.036;2024-02-26T07:39:22;15.75;;;4.90;;
72797;SDS011;61084;55.816;37.036;2024-02-26T07:41:48;21.17;;;7.45;;
72797;SDS011;61084;55.816;37.036;2024-02-26T07:44:17;15.65;;;6.82;;
72797;SDS011;61084;55.816;37.036;2024-02-26T07:46:43;29.05;;;11.90;;
72797;SDS011;61084;55.816;37.036;2024-02-26T07:49:09;10.80;;;5.15;;
72797;SDS011;61084;55.816;37.036;2024-02-26T07:51:35;11.05;;;4.32;;
72797;SDS011;61084;55.816;37.036;2024-02-26T07:54:01;10.10;;;3.53;;
72797;SDS011;61084;55.816;37.036;2024-02-26T07:56:27;10.05;;;3.33;;
72797;SDS011;61084;55.816;37.036;2024-02-26T07:58:53;8.93;;;3.05;;
72797;SDS011;61084;55.816;37.036;2024-02-26T08:01:19;8.90;;;2.83;;
72797;SDS011;61084;55.816;37.036;2024-02-26T08:03:45;11.57;;;2.97;;
72797;SDS011;61084;55.816;37.036;2024-02-26T08:06:11;7.00;;;2.60;;
72797;SDS011;61084;55.816;37.036;2024-02-26T08:08:37;8.48;;;3.33;;
72797;SDS011;61084;55.816;37.036;2024-02-26T08:11:03;7.50;;;2.90;;
72797;SDS011;61084;55.816;37.036;2024-02-26T08:13:29;8.25;;;2.72;;
72797;SDS011;61084;55.816;37.036;2024-02-26T08:15:55;9.48;;;3.22;;
72797;SDS011;61084;55.816;37.036;2024-02-26T08:18:21;6.47;;;2.80;;
72797;SDS011;61084;55.816;37.036;2024-02-26T08:20:47;8.20;;;3.40;;
72797;SDS011;61084;55.816;37.036;2024-02-26T08:25:40;13.57;;;3.35;;
72797;SDS011;61084;55.816;37.036;2024-02-26T08:28:05;8.98;;;3.38;;
72797;SDS011;61084;55.816;37.036;2024-02-26T08:30:32;6.18;;;2.88;;
72797;SDS011;61084;55.816;37.036;2024-02-26T08:32:59;6.40;;;2.72;;
72797;SDS011;61084;55.816;37.036;2024-02-26T08:35:26;9.77;;;3.38;;
72797;SDS011;61084;55.816;37.036;2024-02-26T08:37:51;10.45;;;2.83;;
72797;SDS011;61084;55.816;37.036;2024-02-26T08:40:17;7.57;;;2.80;;
72797;SDS011;61084;55.816;37.036;2024-02-26T08:42:45;5.88;;;2.70;;
72797;SDS011;61084;55.816;37.036;2024-02-26T08:45:11;8.35;;;3.17;;
72797;SDS011;61084;55.816;37.036;2024-02-26T08:47:38;9.75;;;2.72;;
72797;SDS011;61084;55.816;37.036;2024-02-26T08:50:04;7.18;;;3.20;;
72797;SDS011;61084;55.816;37.036;2024-02-26T08:52:31;5.80;;;2.50;;
72797;SDS011;61084;55.816;37.036;2024-02-26T08:54:58;5.32;;;2.72;;
72797;SDS011;61084;55.816;37.036;2024-02-26T08:57:24;8.48;;;2.97;;
72797;SDS011;61084;55.816;37.036;2024-02-26T08:59:52;6.25;;;2.60;;
72797;SDS011;61084;55.816;37.036;2024-02-26T09:02:18;7.53;;;2.58;;
72797;SDS011;61084;55.816;37.036;2024-02-26T09:04:45;6.28;;;2.85;;
72797;SDS011;61084;55.816;37.036;2024-02-26T09:07:11;10.05;;;3.13;;
72797;SDS011;61084;55.816;37.036;2024-02-26T09:09:36;9.38;;;3.05;;
72797;SDS011;61084;55.816;37.036;2024-02-26T09:12:02;11.55;;;2.63;;
72797;SDS011;61084;55.816;37.036;2024-02-26T09:14:28;8.52;;;3.17;;
72797;SDS011;61084;55.816;37.036;2024-02-26T09:16:54;7.70;;;3.05;;
72797;SDS011;61084;55.816;37.036;2024-02-26T09:19:20;9.43;;;3.25;;
72797;SDS011;61084;55.816;37.036;2024-02-26T09:21:46;6.80;;;2.78;;
72797;SDS011;61084;55.816;37.036;2024-02-26T09:24:12;10.35;;;2.33;;
72797;SDS011;61084;55.816;37.036;2024-02-26T09:26:38;5.75;;;2.38;;
72797;SDS011;61084;55.816;37.036;2024-02-26T09:29:04;7.38;;;2.58;;
72797;SDS011;61084;55.816;37.036;2024-02-26T09:31:30;6.25;;;2.63;;
72797;SDS011;61084;55.816;37.036;2024-02-26T09:33:56;7.78;;;2.72;;
72797;SDS011;61084;55.816;37.036;2024-02-26T09:36:22;7.40;;;2.35;;
72797;SDS011;61084;55.816;37.036;2024-02-26T09:38:48;6.57;;;2.60;;
72797;SDS011;61084;55.816;37.036;2024-02-26T09:41:14;9.73;;;3.05;;
72797;SDS011;61084;55.816;37.036;2024-02-26T09:43:44;13.88;;;3.53;;
72797;SDS011;61084;55.816;37.036;2024-02-26T09:46:13;8.45;;;2.63;;
72797;SDS011;61084;55.816;37.036;2024-02-26T09:48:42;8.75;;;2.55;;
72797;SDS011;61084;55.816;37.036;2024-02-26T09:51:10;6.28;;;2.50;;
72797;SDS011;61084;55.816;37.036;2024-02-26T09:53:38;8.50;;;2.83;;
72797;SDS011;61084;55.816;37.036;2024-02-26T09:56:08;11.13;;;3.03;;
72797;SDS011;61084;55.816;37.036;2024-02-26T09:58:36;7.82;;;3.03;;
72797;SDS011;61084;55.816;37.036;2024-02-26T10:03:37;5.82;;;2.22;;
72797;SDS011;61084;55.816;37.036;2024-02-26T10:06:16;6.28;;;2.00;;
72797;SDS011;61084;55.816;37.036;2024-02-26T10:08:42;5.60;;;2.78;;
72797;SDS011;61084;55.816;37.036;2024-02-26T10:11:10;15.82;;;2.78;;
72797;SDS011;61084;55.816;37.036;2024-02-26T10:13:36;9.18;;;2.72;;
72797;SDS011;61084;55.816;37.036;2024-02-26T10:16:02;9.20;;;2.97;;
72797;SDS011;61084;55.816;37.036;2024-02-26T10:18:47;7.32;;;2.80;;
72797;SDS011;61084;55.816;37.036;2024-02-26T10:21:15;10.98;;;2.90;;
72797;SDS011;61084;55.816;37.036;2024-02-26T10:23:43;8.30;;;3.42;;
72797;SDS011;61084;55.816;37.036;2024-02-26T10:26:11;7.15;;;2.53;;
72797;SDS011;61084;55.816;37.036;2024-02-26T10:28:39;8.57;;;3.15;;
72797;SDS011;61084;55.816;37.036;2024-02-26T10:31:06;8.57;;;3.10;;
72797;SDS011;61084;55.816;37.036;2024-02-26T10:33:35;8.73;;;3.08;;
72797;SDS011;61084;55.816;37.036;2024-02-26T10:36:03;9.73;;;2.55;;
72797;SDS011;61084;55.816;37.036;2024-02-26T10:38:33;6.35;;;2.30;;
72797;SDS011;61084;55.816;37.036;2024-02-26T10:43:30;7.47;;;2.67;;
72797;SDS011;61084;55.816;37.036;2024-02-26T10:45:56;5.15;;;2.78;;
72797;SDS011;61084;55.816;37.036;2024-02-26T10:48:22;8.55;;;2.38;;
72797;SDS011;61084;55.816;37.036;2024-02-26T10:50:49;5.22;;;2.10;;
72797;SDS011;61084;55.816;37.036;2024-02-26T10:53:22;10.30;;;2.45;;
72797;SDS011;61084;55.816;37.036;2024-02-26T10:55:52;5.38;;;2.17;;
72797;SDS011;61084;55.816;37.036;2024-02-26T10:58:31;6.72;;;2.70;;
72797;SDS011;61084;55.816;37.036;2024-02-26T11:00:57;7.55;;;2.40;;
72797;SDS011;61084;55.816;37.036;2024-02-26T11:03:34;7.60;;;2.60;;
72797;SDS011;61084;55.816;37.036;2024-02-26T11:06:31;7.82;;;2.83;;
72797;SDS011;61084;55.816;37.036;2024-02-26T11:09:00;7.68;;;3.00;;
72797;SDS011;61084;55.816;37.036;2024-02-26T11:11:28;15.80;;;3.20;;
72797;SDS011;61084;55.816;37.036;2024-02-26T11:13:57;10.55;;;2.70;;
72797;SDS011;61084;55.816;37.036;2024-02-26T11:16:24;5.82;;;2.38;;
72797;SDS011;61084;55.816;37.036;2024-02-26T11:18:52;6.15;;;2.67;;
72797;SDS011;61084;55.816;37.036;2024-02-26T11:21:21;10.65;;;2.65;;
72797;SDS011;61084;55.816;37.036;2024-02-26T11:24:05;5.63;;;2.30;;
72797;SDS011;61084;55.816;37.036;2024-02-26T11:26:34;8.30;;;2.70;;
72797;SDS011;61084;55.816;37.036;2024-02-26T11:29:04;3.17;;;1.92;;
72797;SDS011;61084;55.816;37.036;2024-02-26T11:31:32;10.38;;;3.03;;
72797;SDS011;61084;55.816;37.036;2024-02-26T11:33:59;7.55;;;2.70;;
72797;SDS011;61084;55.816;37.036;2024-02-26T11:36:25;10.70;;;2.80;;
72797;SDS011;61084;55.816;37.036;2024-02-26T11:38:51;7.38;;;2.33;;
72797;SDS011;61084;55.816;37.036;2024-02-26T11:41:18;8.02;;;2.60;;
72797;SDS011;61084;55.816;37.036;2024-02-26T11:43:57;8.20;;;2.60;;
72797;SDS011;61084;55.816;37.036;2024-02-26T11:49:02;6.57;;;2.58;;
72797;SDS011;61084;55.816;37.036;2024-02-26T11:51:58;7.60;;;2.45;;
72797;SDS011;61084;55.816;37.036;2024-02-26T12:00:11;9.05;;;2.85;;
72797;SDS011;61084;55.816;37.036;2024-02-26T12:02:51;10.13;;;2.70;;
72797;SDS011;61084;55.816;37.036;2024-02-26T12:05:30;7.90;;;2.85;;
72797;SDS011;61084;55.816;37.036;2024-02-26T12:08:01;9.23;;;3.63;;
72797;SDS011;61084;55.816;37.036;2024-02-26T12:10:33;11.50;;;2.83;;
72797;SDS011;61084;55.816;37.036;2024-02-26T12:13:09;8.90;;;3.22;;
72797;SDS011;61084;55.816;37.036;2024-02-26T12:15:41;9.02;;;2.95;;
72797;SDS011;61084;55.816;37.036;2024-02-26T12:18:09;8.88;;;3.30;;
72797;SDS011;61084;55.816;37.036;2024-02-26T12:20:41;11.70;;;3.50;;
72797;SDS011;61084;55.816;37.036;2024-02-26T12:23:10;8.50;;;3.28;;
72797;SDS011;61084;55.816;37.036;2024-02-26T12:25:40;8.30;;;2.95;;
72797;SDS011;61084;55.816;37.036;2024-02-26T12:28:07;7.80;;;3.03;;
72797;SDS011;61084;55.816;37.036;2024-02-26T12:30:32;9.38;;;2.92;;
72797;SDS011;61084;55.816;37.036;2024-02-26T12:33:00;9.18;;;2.83;;
72797;SDS011;61084;55.816;37.036;2024-02-26T12:35:27;9.77;;;3.15;;
72797;SDS011;61084;55.816;37.036;2024-02-26T12:37:54;11.73;;;2.97;;
72797;SDS011;61084;55.816;37.036;2024-02-26T12:40:20;8.25;;;2.40;;
72797;SDS011;61084;55.816;37.036;2024-02-26T12:42:46;10.07;;;3.30;;
72797;SDS011;61084;55.816;37.036;2024-02-26T12:45:13;5.15;;;2.95;;
72797;SDS011;61084;55.816;37.036;2024-02-26T12:50:15;11.60;;;3.03;;
72797;SDS011;61084;55.816;37.036;2024-02-26T12:53:00;12.15;;;3.15;;
72797;SDS011;61084;55.816;37.036;2024-02-26T12:55:26;11.27;;;2.80;;
72797;SDS011;61084;55.816;37.036;2024-02-26T12:57:53;13.23;;;3.92;;
72797;SDS011;61084;55.816;37.036;2024-02-26T13:00:25;9.00;;;2.90;;
72797;SDS011;61084;55.816;37.036;2024-02-26T13:02:53;6.15;;;2.60;;
72797;SDS011;61084;55.816;37.036;2024-02-26T13:07:46;6.70;;;2.60;;
72797;SDS011;61084;55.816;37.036;2024-02-26T13:10:13;9.43;;;2.90;;
72797;SDS011;61084;55.816;37.036;2024-02-26T13:12:46;11.70;;;3.30;;
72797;SDS011;61084;55.816;37.036;2024-02-26T13:15:16;10.60;;;3.40;;
72797;SDS011;61084;55.816;37.036;2024-02-26T13:17:44;11.38;;;3.63;;
72797;SDS011;61084;55.816;37.036;2024-02-26T13:20:11;10.05;;;3.38;;
72797;SDS011;61084;55.816;37.036;2024-02-26T13:22:38;8.93;;;3.15;;
72797;SDS011;61084;55.816;37.036;2024-02-26T13:25:04;9.95;;;3.08;;
72797;SDS011;61084;55.816;37.036;2024-02-26T13:27:32;10.20;;;3.63;;
72797;SDS011;61084;55.816;37.036;2024-02-26T13:30:08;10.65;;;3.03;;
72797;SDS011;61084;55.816;37.036;2024-02-26T13:32:36;5.32;;;2.60;;
72797;SDS011;61084;55.816;37.036;2024-02-26T13:35:10;7.10;;;3.30;;
72797;SDS011;61084;55.816;37.036;2024-02-26T13:37:38;11.18;;;3.22;;
72797;SDS011;61084;55.816;37.036;2024-02-26T13:40:11;10.55;;;2.70;;
72797;SDS011;61084;55.816;37.036;2024-02-26T13:42:37;9.27;;;3.25;;
72797;SDS011;61084;55.816;37.036;2024-02-26T13:45:04;8.50;;;3.42;;
72797;SDS011;61084;55.816;37.036;2024-02-26T13:47:34;7.43;;;3.00;;
72797;SDS011;61084;55.816;37.036;2024-02-26T13:50:00;10.27;;;3.20;;
72797;SDS011;61084;55.816;37.036;2024-02-26T13:54:53;9.48;;;2.53;;
72797;SDS011;61084;55.816;37.036;2024-02-26T13:57:19;9.32;;;3.03;;
72797;SDS011;61084;55.816;37.036;2024-02-26T13:59:45;7.20;;;2.85;;
72797;SDS011;61084;55.816;37.036;2024-02-26T14:02:11;8.20;;;3.00;;
72797;SDS011;61084;55.816;37.036;2024-02-26T14:04:38;7.47;;;3.10;;
72797;SDS011;61084;55.816;37.036;2024-02-26T14:07:04;12.07;;;2.88;;
72797;SDS011;61084;55.816;37.036;2024-02-26T14:09:30;7.50;;;3.00;;
72797;SDS011;61084;55.816;37.036;2024-02-26T14:11:58;13.90;;;2.92;;
72797;SDS011;61084;55.816;37.036;2024-02-26T14:14:26;8.88;;;2.65;;
72797;SDS011;61084;55.816;37.036;2024-02-26T14:16:53;6.28;;;2.83;;
72797;SDS011;61084;55.816;37.036;2024-02-26T14:19:19;13.65;;;3.22;;
72797;SDS011;61084;55.816;37.036;2024-02-26T14:21:44;10.10;;;3.33;;
72797;SDS011;61084;55.816;37.036;2024-02-26T14:24:10;5.70;;;2.55;;
72797;SDS011;61084;55.816;37.036;2024-02-26T14:26:36;5.88;;;2.55;;
72797;SDS011;61084;55.816;37.036;2024-02-26T14:29:02;13.50;;;3.35;;
72797;SDS011;61084;55.816;37.036;2024-02-26T14:31:29;14.52;;;3.33;;
72797;SDS011;61084;55.816;37.036;2024-02-26T14:34:13;7.20;;;3.25;;
72797;SDS011;61084;55.816;37.036;2024-02-26T14:36:39;15.05;;;3.72;;
72797;SDS011;61084;55.816;37.036;2024-02-26T14:39:06;12.43;;;3.22;;
72797;SDS011;61084;55.816;37.036;2024-02-26T14:41:32;6.95;;;2.38;;
72797;SDS011;61084;55.816;37.036;2024-02-26T14:43:58;6.80;;;2.63;;
72797;SDS011;61084;55.816;37.036;2024-02-26T14:46:23;9.00;;;2.63;;
72797;SDS011;61084;55.816;37.036;2024-02-26T14:48:49;9.60;;;2.67;;
72797;SDS011;61084;55.816;37.036;2024-02-26T14:51:15;7.35;;;2.85;;
72797;SDS011;61084;55.816;37.036;2024-02-26T14:53:41;8.23;;;2.67;;
72797;SDS011;61084;55.816;37.036;2024-02-26T14:56:07;7.68;;;2.63;;
72797;SDS011;61084;55.816;37.036;2024-02-26T14:58:33;6.78;;;2.80;;